sensor_id;sensor_type;location;lat;lon;timestamp;P1;durP1;ratioP1;P2;durP2;ratioP2
44214;SDS011;29884;47.450;19.124;2024-03-02T00:00:03;25.73;;;11.10;;
44214;SDS011;29884;47.450;19.124;2024-03-02T00:02:39;22.50;;;11.50;;
44214;SDS011;29884;47.450;19.124;2024-03-02T00:05:06;19.80;;;11.30;;
44214;SDS011;29884;47.450;19.124;2024-03-02T00:07:32;19.65;;;11.18;;
44214;SDS011;29884;47.450;19.124;2024-03-02T00:09:59;21.55;;;11.30;;
44214;SDS011;29884;47.450;19.124;2024-03-02T00:12:25;21.30;;;11.75;;
44214;SDS011;29884;47.450;19.124;2024-03-02T00:14:51;24.00;;;11.60;;
44214;SDS011;29884;47.450;19.124;2024-03-02T00:17:25;19.08;;;11.07;;
44214;SDS011;29884;47.450;19.124;2024-03-02T00:19:51;22.52;;;11.10;;
44214;SDS011;29884;47.450;19.124;2024-03-02T00:22:17;21.77;;;11.65;;
44214;SDS011;29884;47.450;19.124;2024-03-02T00:24:43;24.20;;;11.35;;
44214;SDS011;29884;47.450;19.124;2024-03-02T00:27:08;20.48;;;11.68;;
44214;SDS011;29884;47.450;19.124;2024-03-02T00:29:39;22.45;;;11.45;;
44214;SDS011;29884;47.450;19.124;2024-03-02T00:32:11;21.90;;;11.35;;
44214;SDS011;29884;47.450;19.124;2024-03-02T00:34:38;18.85;;;10.82;;
44214;SDS011;29884;47.450;19.124;2024-03-02T00:37:04;20.38;;;10.82;;
44214;SDS011;29884;47.450;19.124;2024-03-02T00:39:30;17.83;;;10.68;;
44214;SDS011;29884;47.450;19.124;2024-03-02T00:41:56;24.13;;;11.65;;
44214;SDS011;29884;47.450;19.124;2024-03-02T00:44:21;19.88;;;11.60;;
44214;SDS011;29884;47.450;19.124;2024-03-02T00:46:51;20.52;;;10.70;;
44214;SDS011;29884;47.450;19.124;2024-03-02T00:51:48;21.13;;;11.65;;
44214;SDS011;29884;47.450;19.124;2024-03-02T00:54:14;21.77;;;10.73;;
44214;SDS011;29884;47.450;19.124;2024-03-02T00:56:44;21.52;;;11.25;;
44214;SDS011;29884;47.450;19.124;2024-03-02T00:59:10;21.92;;;11.65;;
44214;SDS011;29884;47.450;19.124;2024-03-02T01:01:35;24.38;;;11.35;;
44214;SDS011;29884;47.450;19.124;2024-03-02T01:04:01;22.13;;;11.20;;
44214;SDS011;29884;47.450;19.124;2024-03-02T01:06:28;24.05;;;11.00;;
44214;SDS011;29884;47.450;19.124;2024-03-02T01:08:55;20.35;;;10.63;;
44214;SDS011;29884;47.450;19.124;2024-03-02T01:11:20;24.67;;;10.75;;
44214;SDS011;29884;47.450;19.124;2024-03-02T01:13:49;22.75;;;11.45;;
44214;SDS011;29884;47.450;19.124;2024-03-02T01:16:15;21.52;;;10.98;;
44214;SDS011;29884;47.450;19.124;2024-03-02T01:18:40;19.95;;;10.20;;
44214;SDS011;29884;47.450;19.124;2024-03-02T01:21:07;20.88;;;10.73;;
44214;SDS011;29884;47.450;19.124;2024-03-02T01:23:32;20.67;;;10.52;;
44214;SDS011;29884;47.450;19.124;2024-03-02T01:25:58;20.80;;;10.18;;
44214;SDS011;29884;47.450;19.124;2024-03-02T01:28:24;21.10;;;10.77;;
44214;SDS011;29884;47.450;19.124;2024-03-02T01:30:49;21.20;;;10.50;;
44214;SDS011;29884;47.450;19.124;2024-03-02T01:33:16;18.83;;;10.50;;
44214;SDS011;29884;47.450;19.124;2024-03-02T01:35:42;21.48;;;11.23;;
44214;SDS011;29884;47.450;19.124;2024-03-02T01:38:08;19.85;;;10.15;;
44214;SDS011;29884;47.450;19.124;2024-03-02T01:40:34;22.67;;;10.75;;
44214;SDS011;29884;47.450;19.124;2024-03-02T01:43:00;21.02;;;10.20;;
44214;SDS011;29884;47.450;19.124;2024-03-02T01:45:27;22.90;;;10.50;;
44214;SDS011;29884;47.450;19.124;2024-03-02T01:47:53;21.80;;;10.77;;
44214;SDS011;29884;47.450;19.124;2024-03-02T01:50:25;20.48;;;10.57;;
44214;SDS011;29884;47.450;19.124;2024-03-02T01:52:55;20.05;;;10.68;;
44214;SDS011;29884;47.450;19.124;2024-03-02T01:55:21;19.63;;;10.07;;
44214;SDS011;29884;47.450;19.124;2024-03-02T01:57:47;20.42;;;10.52;;
44214;SDS011;29884;47.450;19.124;2024-03-02T02:00:17;17.70;;;10.23;;
44214;SDS011;29884;47.450;19.124;2024-03-02T02:02:44;20.73;;;10.98;;
44214;SDS011;29884;47.450;19.124;2024-03-02T02:05:10;20.42;;;10.98;;
44214;SDS011;29884;47.450;19.124;2024-03-02T02:07:36;21.02;;;10.25;;
44214;SDS011;29884;47.450;19.124;2024-03-02T02:10:01;19.85;;;10.35;;
44214;SDS011;29884;47.450;19.124;2024-03-02T02:12:27;19.75;;;10.50;;
44214;SDS011;29884;47.450;19.124;2024-03-02T02:14:53;19.23;;;11.05;;
44214;SDS011;29884;47.450;19.124;2024-03-02T02:17:19;21.60;;;10.57;;
44214;SDS011;29884;47.450;19.124;2024-03-02T02:19:44;22.75;;;10.88;;
44214;SDS011;29884;47.450;19.124;2024-03-02T02:22:10;19.10;;;10.57;;
44214;SDS011;29884;47.450;19.124;2024-03-02T02:24:39;19.70;;;10.48;;
44214;SDS011;29884;47.450;19.124;2024-03-02T02:27:06;20.80;;;10.32;;
44214;SDS011;29884;47.450;19.124;2024-03-02T02:29:32;18.85;;;10.00;;
44214;SDS011;29884;47.450;19.124;2024-03-02T02:31:58;17.50;;;9.75;;
44214;SDS011;29884;47.450;19.124;2024-03-02T02:34:23;21.25;;;10.05;;
44214;SDS011;29884;47.450;19.124;2024-03-02T02:36:49;19.10;;;9.93;;
44214;SDS011;29884;47.450;19.124;2024-03-02T02:39:15;25.23;;;10.60;;
44214;SDS011;29884;47.450;19.124;2024-03-02T02:41:44;18.05;;;9.63;;
44214;SDS011;29884;47.450;19.124;2024-03-02T02:44:09;18.90;;;9.80;;
44214;SDS011;29884;47.450;19.124;2024-03-02T02:46:37;22.08;;;10.50;;
44214;SDS011;29884;47.450;19.124;2024-03-02T02:49:06;18.40;;;9.30;;
44214;SDS011;29884;47.450;19.124;2024-03-02T02:51:32;19.35;;;10.13;;
44214;SDS011;29884;47.450;19.124;2024-03-02T02:53:57;20.50;;;10.55;;
44214;SDS011;29884;47.450;19.124;2024-03-02T02:56:23;23.88;;;10.20;;
44214;SDS011;29884;47.450;19.124;2024-03-02T02:58:49;17.13;;;9.93;;
44214;SDS011;29884;47.450;19.124;2024-03-02T03:01:15;16.75;;;8.88;;
44214;SDS011;29884;47.450;19.124;2024-03-02T03:03:43;19.05;;;10.38;;
44214;SDS011;29884;47.450;19.124;2024-03-02T03:06:09;18.33;;;10.30;;
44214;SDS011;29884;47.450;19.124;2024-03-02T03:08:35;18.38;;;10.27;;
44214;SDS011;29884;47.450;19.124;2024-03-02T03:11:00;20.95;;;10.73;;
44214;SDS011;29884;47.450;19.124;2024-03-02T03:13:26;22.70;;;10.05;;
44214;SDS011;29884;47.450;19.124;2024-03-02T03:15:52;18.08;;;9.70;;
44214;SDS011;29884;47.450;19.124;2024-03-02T03:18:17;17.58;;;10.02;;
44214;SDS011;29884;47.450;19.124;2024-03-02T03:20:43;19.10;;;9.00;;
44214;SDS011;29884;47.450;19.124;2024-03-02T03:23:09;19.95;;;10.43;;
44214;SDS011;29884;47.450;19.124;2024-03-02T03:25:40;16.55;;;9.55;;
44214;SDS011;29884;47.450;19.124;2024-03-02T03:28:05;18.33;;;10.02;;
44214;SDS011;29884;47.450;19.124;2024-03-02T03:30:31;18.00;;;9.48;;
44214;SDS011;29884;47.450;19.124;2024-03-02T03:32:57;17.55;;;9.77;;
44214;SDS011;29884;47.450;19.124;2024-03-02T03:35:22;19.27;;;10.30;;
44214;SDS011;29884;47.450;19.124;2024-03-02T03:37:48;19.73;;;9.98;;
44214;SDS011;29884;47.450;19.124;2024-03-02T03:40:13;20.30;;;10.20;;
44214;SDS011;29884;47.450;19.124;2024-03-02T03:42:39;21.77;;;10.55;;
44214;SDS011;29884;47.450;19.124;2024-03-02T03:45:05;20.95;;;10.27;;
44214;SDS011;29884;47.450;19.124;2024-03-02T03:47:31;20.75;;;10.68;;
44214;SDS011;29884;47.450;19.124;2024-03-02T03:49:57;18.70;;;10.32;;
44214;SDS011;29884;47.450;19.124;2024-03-02T03:52:23;19.95;;;10.07;;
44214;SDS011;29884;47.450;19.124;2024-03-02T03:54:49;19.75;;;10.00;;
44214;SDS011;29884;47.450;19.124;2024-03-02T03:57:14;19.63;;;10.77;;
44214;SDS011;29884;47.450;19.124;2024-03-02T03:59:41;20.52;;;9.77;;
44214;SDS011;29884;47.450;19.124;2024-03-02T04:02:06;18.55;;;9.30;;
44214;SDS011;29884;47.450;19.124;2024-03-02T04:04:33;20.38;;;10.80;;
44214;SDS011;29884;47.450;19.124;2024-03-02T04:06:58;21.15;;;10.40;;
44214;SDS011;29884;47.450;19.124;2024-03-02T04:09:24;19.77;;;10.20;;
44214;SDS011;29884;47.450;19.124;2024-03-02T04:11:50;19.83;;;10.52;;
44214;SDS011;29884;47.450;19.124;2024-03-02T04:14:16;22.80;;;10.00;;
44214;SDS011;29884;47.450;19.124;2024-03-02T04:16:42;20.85;;;11.10;;
44214;SDS011;29884;47.450;19.124;2024-03-02T04:19:07;22.98;;;10.45;;
44214;SDS011;29884;47.450;19.124;2024-03-02T04:21:33;21.17;;;11.60;;
44214;SDS011;29884;47.450;19.124;2024-03-02T04:23:58;24.42;;;10.80;;
44214;SDS011;29884;47.450;19.124;2024-03-02T04:26:24;20.35;;;11.40;;
44214;SDS011;29884;47.450;19.124;2024-03-02T04:28:51;18.67;;;10.82;;
44214;SDS011;29884;47.450;19.124;2024-03-02T04:31:17;20.25;;;10.95;;
44214;SDS011;29884;47.450;19.124;2024-03-02T04:33:43;21.95;;;10.80;;
44214;SDS011;29884;47.450;19.124;2024-03-02T04:36:08;21.55;;;11.30;;
44214;SDS011;29884;47.450;19.124;2024-03-02T04:38:37;22.80;;;11.60;;
44214;SDS011;29884;47.450;19.124;2024-03-02T04:41:07;20.58;;;10.70;;
44214;SDS011;29884;47.450;19.124;2024-03-02T04:43:32;22.52;;;11.13;;
44214;SDS011;29884;47.450;19.124;2024-03-02T04:45:59;21.58;;;11.38;;
44214;SDS011;29884;47.450;19.124;2024-03-02T04:48:25;21.95;;;11.98;;
44214;SDS011;29884;47.450;19.124;2024-03-02T04:50:51;21.15;;;11.63;;
44214;SDS011;29884;47.450;19.124;2024-03-02T04:53:17;22.65;;;12.13;;
44214;SDS011;29884;47.450;19.124;2024-03-02T04:55:42;23.30;;;12.00;;
44214;SDS011;29884;47.450;19.124;2024-03-02T04:58:08;23.15;;;11.60;;
44214;SDS011;29884;47.450;19.124;2024-03-02T05:00:34;23.08;;;11.65;;
44214;SDS011;29884;47.450;19.124;2024-03-02T05:03:00;23.38;;;11.88;;
44214;SDS011;29884;47.450;19.124;2024-03-02T05:05:26;19.13;;;11.32;;
44214;SDS011;29884;47.450;19.124;2024-03-02T05:07:52;22.20;;;11.88;;
44214;SDS011;29884;47.450;19.124;2024-03-02T05:10:17;22.75;;;11.63;;
44214;SDS011;29884;47.450;19.124;2024-03-02T05:12:43;24.08;;;12.10;;
44214;SDS011;29884;47.450;19.124;2024-03-02T05:15:15;25.58;;;12.50;;
44214;SDS011;29884;47.450;19.124;2024-03-02T05:17:40;27.25;;;12.60;;
44214;SDS011;29884;47.450;19.124;2024-03-02T05:20:10;25.00;;;12.25;;
44214;SDS011;29884;47.450;19.124;2024-03-02T05:22:36;24.00;;;12.85;;
44214;SDS011;29884;47.450;19.124;2024-03-02T05:25:05;22.80;;;12.55;;
44214;SDS011;29884;47.450;19.124;2024-03-02T05:27:31;22.15;;;11.80;;
44214;SDS011;29884;47.450;19.124;2024-03-02T05:30:00;22.35;;;11.95;;
44214;SDS011;29884;47.450;19.124;2024-03-02T05:32:26;24.52;;;12.80;;
44214;SDS011;29884;47.450;19.124;2024-03-02T05:34:52;24.52;;;12.75;;
44214;SDS011;29884;47.450;19.124;2024-03-02T05:37:18;27.80;;;13.10;;
44214;SDS011;29884;47.450;19.124;2024-03-02T05:39:43;25.67;;;12.48;;
44214;SDS011;29884;47.450;19.124;2024-03-02T05:42:09;24.27;;;12.30;;
44214;SDS011;29884;47.450;19.124;2024-03-02T05:44:35;23.23;;;12.23;;
44214;SDS011;29884;47.450;19.124;2024-03-02T05:47:01;24.77;;;12.93;;
44214;SDS011;29884;47.450;19.124;2024-03-02T05:49:28;28.02;;;12.90;;
44214;SDS011;29884;47.450;19.124;2024-03-02T05:51:53;26.67;;;14.07;;
44214;SDS011;29884;47.450;19.124;2024-03-02T05:54:19;21.67;;;12.32;;
44214;SDS011;29884;47.450;19.124;2024-03-02T05:56:44;28.80;;;12.90;;
44214;SDS011;29884;47.450;19.124;2024-03-02T05:59:10;25.45;;;13.45;;
44214;SDS011;29884;47.450;19.124;2024-03-02T06:01:39;26.55;;;13.20;;
44214;SDS011;29884;47.450;19.124;2024-03-02T06:04:11;23.83;;;13.35;;
44214;SDS011;29884;47.450;19.124;2024-03-02T06:06:37;26.20;;;13.05;;
44214;SDS011;29884;47.450;19.124;2024-03-02T06:09:04;26.30;;;13.68;;
44214;SDS011;29884;47.450;19.124;2024-03-02T06:11:42;25.15;;;13.23;;
44214;SDS011;29884;47.450;19.124;2024-03-02T06:14:08;22.80;;;12.48;;
44214;SDS011;29884;47.450;19.124;2024-03-02T06:16:34;23.38;;;12.80;;
44214;SDS011;29884;47.450;19.124;2024-03-02T06:19:00;25.48;;;13.10;;
44214;SDS011;29884;47.450;19.124;2024-03-02T06:21:26;25.73;;;12.77;;
44214;SDS011;29884;47.450;19.124;2024-03-02T06:23:53;23.17;;;12.65;;
44214;SDS011;29884;47.450;19.124;2024-03-02T06:26:19;24.92;;;12.70;;
44214;SDS011;29884;47.450;19.124;2024-03-02T06:28:45;26.70;;;12.48;;
44214;SDS011;29884;47.450;19.124;2024-03-02T06:31:11;24.77;;;13.63;;
44214;SDS011;29884;47.450;19.124;2024-03-02T06:33:37;24.52;;;12.80;;
44214;SDS011;29884;47.450;19.124;2024-03-02T06:36:02;24.77;;;12.82;;
44214;SDS011;29884;47.450;19.124;2024-03-02T06:38:29;23.00;;;12.73;;
44214;SDS011;29884;47.450;19.124;2024-03-02T06:40:57;26.05;;;13.05;;
44214;SDS011;29884;47.450;19.124;2024-03-02T06:43:22;24.90;;;12.18;;
44214;SDS011;29884;47.450;19.124;2024-03-02T06:45:48;25.35;;;13.25;;
44214;SDS011;29884;47.450;19.124;2024-03-02T06:48:18;26.13;;;13.80;;
44214;SDS011;29884;47.450;19.124;2024-03-02T06:50:48;25.95;;;12.85;;
44214;SDS011;29884;47.450;19.124;2024-03-02T06:53:14;22.23;;;12.52;;
44214;SDS011;29884;47.450;19.124;2024-03-02T06:55:43;29.38;;;13.63;;
44214;SDS011;29884;47.450;19.124;2024-03-02T06:58:09;26.30;;;13.00;;
44214;SDS011;29884;47.450;19.124;2024-03-02T07:00:36;24.38;;;12.85;;
44214;SDS011;29884;47.450;19.124;2024-03-02T07:03:01;22.83;;;13.00;;
44214;SDS011;29884;47.450;19.124;2024-03-02T07:05:27;27.70;;;13.10;;
44214;SDS011;29884;47.450;19.124;2024-03-02T07:07:53;24.20;;;13.00;;
44214;SDS011;29884;47.450;19.124;2024-03-02T07:10:18;23.25;;;13.57;;
44214;SDS011;29884;47.450;19.124;2024-03-02T07:12:44;23.65;;;13.18;;
44214;SDS011;29884;47.450;19.124;2024-03-02T07:15:09;22.70;;;13.23;;
44214;SDS011;29884;47.450;19.124;2024-03-02T07:18:02;33.45;;;14.05;;
44214;SDS011;29884;47.450;19.124;2024-03-02T07:20:29;22.95;;;12.73;;
44214;SDS011;29884;47.450;19.124;2024-03-02T07:22:54;25.48;;;13.63;;
44214;SDS011;29884;47.450;19.124;2024-03-02T07:25:20;25.52;;;13.85;;
44214;SDS011;29884;47.450;19.124;2024-03-02T07:27:45;23.58;;;13.20;;
44214;SDS011;29884;47.450;19.124;2024-03-02T07:30:13;24.92;;;13.93;;
44214;SDS011;29884;47.450;19.124;2024-03-02T07:32:41;24.88;;;12.90;;
44214;SDS011;29884;47.450;19.124;2024-03-02T07:35:10;23.30;;;12.88;;
44214;SDS011;29884;47.450;19.124;2024-03-02T07:37:37;25.45;;;13.02;;
44214;SDS011;29884;47.450;19.124;2024-03-02T07:40:03;25.73;;;12.68;;
44214;SDS011;29884;47.450;19.124;2024-03-02T07:42:28;21.58;;;12.48;;
44214;SDS011;29884;47.450;19.124;2024-03-02T07:44:54;24.42;;;13.10;;
44214;SDS011;29884;47.450;19.124;2024-03-02T07:47:19;25.80;;;13.48;;
44214;SDS011;29884;47.450;19.124;2024-03-02T07:49:45;21.70;;;11.80;;
44214;SDS011;29884;47.450;19.124;2024-03-02T07:52:11;24.33;;;12.75;;
44214;SDS011;29884;47.450;19.124;2024-03-02T07:54:37;21.92;;;13.15;;
44214;SDS011;29884;47.450;19.124;2024-03-02T07:57:02;25.27;;;12.57;;
44214;SDS011;29884;47.450;19.124;2024-03-02T07:59:28;20.88;;;11.98;;
44214;SDS011;29884;47.450;19.124;2024-03-02T08:01:54;22.80;;;12.68;;
44214;SDS011;29884;47.450;19.124;2024-03-02T08:04:20;23.45;;;12.10;;
44214;SDS011;29884;47.450;19.124;2024-03-02T08:06:46;23.23;;;12.88;;
44214;SDS011;29884;47.450;19.124;2024-03-02T08:09:12;21.88;;;11.73;;
44214;SDS011;29884;47.450;19.124;2024-03-02T08:11:38;20.67;;;11.88;;
44214;SDS011;29884;47.450;19.124;2024-03-02T08:14:03;22.05;;;13.05;;
44214;SDS011;29884;47.450;19.124;2024-03-02T08:16:29;24.00;;;12.88;;
44214;SDS011;29884;47.450;19.124;2024-03-02T08:18:55;19.75;;;11.70;;
44214;SDS011;29884;47.450;19.124;2024-03-02T08:21:23;22.50;;;12.07;;
44214;SDS011;29884;47.450;19.124;2024-03-02T08:23:49;22.73;;;12.43;;
44214;SDS011;29884;47.450;19.124;2024-03-02T08:26:15;21.95;;;12.05;;
44214;SDS011;29884;47.450;19.124;2024-03-02T08:28:40;21.38;;;12.52;;
44214;SDS011;29884;47.450;19.124;2024-03-02T08:31:06;21.13;;;12.00;;
44214;SDS011;29884;47.450;19.124;2024-03-02T08:33:32;20.08;;;11.27;;
44214;SDS011;29884;47.450;19.124;2024-03-02T08:35:58;22.88;;;11.98;;
44214;SDS011;29884;47.450;19.124;2024-03-02T08:38:24;19.42;;;11.30;;
44214;SDS011;29884;47.450;19.124;2024-03-02T08:40:50;21.33;;;11.15;;
44214;SDS011;29884;47.450;19.124;2024-03-02T08:43:16;20.05;;;11.20;;
44214;SDS011;29884;47.450;19.124;2024-03-02T08:45:42;19.00;;;11.68;;
44214;SDS011;29884;47.450;19.124;2024-03-02T08:48:08;21.75;;;11.23;;
44214;SDS011;29884;47.450;19.124;2024-03-02T08:50:34;21.02;;;10.93;;
44214;SDS011;29884;47.450;19.124;2024-03-02T08:53:00;23.73;;;11.88;;
44214;SDS011;29884;47.450;19.124;2024-03-02T08:55:26;19.08;;;10.48;;
44214;SDS011;29884;47.450;19.124;2024-03-02T08:57:51;19.88;;;10.82;;
44214;SDS011;29884;47.450;19.124;2024-03-02T09:00:17;18.33;;;11.38;;
44214;SDS011;29884;47.450;19.124;2024-03-02T09:02:44;18.95;;;11.15;;
44214;SDS011;29884;47.450;19.124;2024-03-02T09:05:09;18.92;;;11.07;;
44214;SDS011;29884;47.450;19.124;2024-03-02T09:07:35;17.98;;;11.05;;
44214;SDS011;29884;47.450;19.124;2024-03-02T09:10:03;20.13;;;10.40;;
44214;SDS011;29884;47.450;19.124;2024-03-02T09:12:29;19.08;;;10.82;;
44214;SDS011;29884;47.450;19.124;2024-03-02T09:14:54;19.58;;;11.65;;
44214;SDS011;29884;47.450;19.124;2024-03-02T09:17:20;17.55;;;10.63;;
44214;SDS011;29884;47.450;19.124;2024-03-02T09:19:45;16.73;;;10.18;;
44214;SDS011;29884;47.450;19.124;2024-03-02T09:22:12;19.73;;;10.30;;
44214;SDS011;29884;47.450;19.124;2024-03-02T09:24:38;19.60;;;10.35;;
44214;SDS011;29884;47.450;19.124;2024-03-02T09:27:03;16.80;;;9.45;;
44214;SDS011;29884;47.450;19.124;2024-03-02T09:29:29;16.75;;;9.13;;
44214;SDS011;29884;47.450;19.124;2024-03-02T09:31:55;14.38;;;9.70;;
44214;SDS011;29884;47.450;19.124;2024-03-02T09:34:21;17.27;;;9.13;;
44214;SDS011;29884;47.450;19.124;2024-03-02T09:36:47;16.73;;;9.43;;
44214;SDS011;29884;47.450;19.124;2024-03-02T09:39:13;16.27;;;9.38;;
44214;SDS011;29884;47.450;19.124;2024-03-02T09:41:39;15.48;;;9.15;;
44214;SDS011;29884;47.450;19.124;2024-03-02T09:44:05;14.68;;;9.13;;
44214;SDS011;29884;47.450;19.124;2024-03-02T09:46:31;16.88;;;9.63;;
44214;SDS011;29884;47.450;19.124;2024-03-02T09:48:57;14.82;;;9.05;;
44214;SDS011;29884;47.450;19.124;2024-03-02T09:51:23;14.38;;;8.65;;
44214;SDS011;29884;47.450;19.124;2024-03-02T09:53:48;14.20;;;9.30;;
44214;SDS011;29884;47.450;19.124;2024-03-02T09:56:15;16.45;;;9.02;;
44214;SDS011;29884;47.450;19.124;2024-03-02T09:58:41;16.58;;;9.27;;
44214;SDS011;29884;47.450;19.124;2024-03-02T10:01:07;15.93;;;9.07;;
44214;SDS011;29884;47.450;19.124;2024-03-02T10:03:35;14.88;;;9.07;;
44214;SDS011;29884;47.450;19.124;2024-03-02T10:06:20;15.45;;;8.70;;
44214;SDS011;29884;47.450;19.124;2024-03-02T10:08:53;13.75;;;8.90;;
44214;SDS011;29884;47.450;19.124;2024-03-02T10:11:29;13.07;;;7.78;;
44214;SDS011;29884;47.450;19.124;2024-03-02T10:14:09;13.07;;;8.27;;
44214;SDS011;29884;47.450;19.124;2024-03-02T10:16:36;12.20;;;8.00;;
44214;SDS011;29884;47.450;19.124;2024-03-02T10:19:16;11.02;;;7.40;;
44214;SDS011;29884;47.450;19.124;2024-03-02T10:21:43;15.07;;;8.32;;
44214;SDS011;29884;47.450;19.124;2024-03-02T10:24:12;13.52;;;8.57;;
44214;SDS011;29884;47.450;19.124;2024-03-02T10:26:38;14.25;;;8.35;;
44214;SDS011;29884;47.450;19.124;2024-03-02T10:29:04;14.68;;;9.20;;
44214;SDS011;29884;47.450;19.124;2024-03-02T10:31:30;13.65;;;8.48;;
44214;SDS011;29884;47.450;19.124;2024-03-02T10:33:55;16.23;;;8.32;;
44214;SDS011;29884;47.450;19.124;2024-03-02T10:36:23;15.88;;;8.63;;
44214;SDS011;29884;47.450;19.124;2024-03-02T10:38:50;12.60;;;7.63;;
44214;SDS011;29884;47.450;19.124;2024-03-02T10:41:20;10.95;;;7.32;;
44214;SDS011;29884;47.450;19.124;2024-03-02T10:43:49;16.60;;;8.18;;
44214;SDS011;29884;47.450;19.124;2024-03-02T10:46:19;13.70;;;7.65;;
44214;SDS011;29884;47.450;19.124;2024-03-02T10:48:45;9.25;;;6.55;;
44214;SDS011;29884;47.450;19.124;2024-03-02T10:51:11;11.43;;;6.35;;
44214;SDS011;29884;47.450;19.124;2024-03-02T10:53:37;10.63;;;6.03;;
44214;SDS011;29884;47.450;19.124;2024-03-02T10:56:03;10.98;;;6.88;;
44214;SDS011;29884;47.450;19.124;2024-03-02T10:58:34;10.90;;;6.85;;
44214;SDS011;29884;47.450;19.124;2024-03-02T11:01:02;10.07;;;6.45;;
44214;SDS011;29884;47.450;19.124;2024-03-02T11:03:33;9.55;;;6.00;;
44214;SDS011;29884;47.450;19.124;2024-03-02T11:06:00;11.25;;;6.47;;
44214;SDS011;29884;47.450;19.124;2024-03-02T11:08:31;9.73;;;5.82;;
44214;SDS011;29884;47.450;19.124;2024-03-02T11:10:58;8.45;;;5.25;;
44214;SDS011;29884;47.450;19.124;2024-03-02T11:13:32;8.05;;;5.57;;
44214;SDS011;29884;47.450;19.124;2024-03-02T11:16:09;8.30;;;5.68;;
44214;SDS011;29884;47.450;19.124;2024-03-02T11:18:42;8.23;;;5.32;;
44214;SDS011;29884;47.450;19.124;2024-03-02T11:21:09;8.35;;;5.28;;
44214;SDS011;29884;47.450;19.124;2024-03-02T11:23:35;7.93;;;5.72;;
44214;SDS011;29884;47.450;19.124;2024-03-02T11:26:19;10.95;;;7.65;;
44214;SDS011;29884;47.450;19.124;2024-03-02T11:28:46;15.48;;;9.75;;
44214;SDS011;29884;47.450;19.124;2024-03-02T11:31:12;11.77;;;6.80;;
44214;SDS011;29884;47.450;19.124;2024-03-02T11:33:38;10.25;;;6.28;;
44214;SDS011;29884;47.450;19.124;2024-03-02T11:36:03;9.60;;;6.97;;
44214;SDS011;29884;47.450;19.124;2024-03-02T11:38:32;7.30;;;5.35;;
44214;SDS011;29884;47.450;19.124;2024-03-02T11:40:59;8.93;;;5.78;;
44214;SDS011;29884;47.450;19.124;2024-03-02T11:43:27;8.15;;;6.03;;
44214;SDS011;29884;47.450;19.124;2024-03-02T11:46:00;8.38;;;6.03;;
44214;SDS011;29884;47.450;19.124;2024-03-02T11:48:29;8.02;;;5.82;;
44214;SDS011;29884;47.450;19.124;2024-03-02T11:50:57;9.32;;;5.78;;
44214;SDS011;29884;47.450;19.124;2024-03-02T11:53:24;6.82;;;4.88;;
44214;SDS011;29884;47.450;19.124;2024-03-02T11:55:54;9.70;;;6.57;;
44214;SDS011;29884;47.450;19.124;2024-03-02T11:58:20;6.90;;;5.05;;
44214;SDS011;29884;47.450;19.124;2024-03-02T12:00:55;9.32;;;5.30;;
44214;SDS011;29884;47.450;19.124;2024-03-02T12:03:24;10.70;;;5.57;;
44214;SDS011;29884;47.450;19.124;2024-03-02T12:05:52;8.50;;;5.18;;
44214;SDS011;29884;47.450;19.124;2024-03-02T12:08:19;8.57;;;5.40;;
44214;SDS011;29884;47.450;19.124;2024-03-02T12:10:55;8.98;;;5.95;;
44214;SDS011;29884;47.450;19.124;2024-03-02T12:13:22;9.35;;;5.70;;
44214;SDS011;29884;47.450;19.124;2024-03-02T12:15:53;8.40;;;5.40;;
44214;SDS011;29884;47.450;19.124;2024-03-02T12:18:21;9.30;;;5.70;;
44214;SDS011;29884;47.450;19.124;2024-03-02T12:20:46;8.27;;;5.80;;
44214;SDS011;29884;47.450;19.124;2024-03-02T12:23:15;8.38;;;5.50;;
44214;SDS011;29884;47.450;19.124;2024-03-02T12:25:41;7.95;;;5.45;;
44214;SDS011;29884;47.450;19.124;2024-03-02T12:28:07;9.40;;;5.50;;
44214;SDS011;29884;47.450;19.124;2024-03-02T12:30:34;10.05;;;6.43;;
44214;SDS011;29884;47.450;19.124;2024-03-02T12:33:01;12.30;;;6.10;;
44214;SDS011;29884;47.450;19.124;2024-03-02T12:35:26;8.95;;;5.80;;
44214;SDS011;29884;47.450;19.124;2024-03-02T12:37:53;10.48;;;6.03;;
44214;SDS011;29884;47.450;19.124;2024-03-02T12:40:19;9.60;;;5.85;;
44214;SDS011;29884;47.450;19.124;2024-03-02T12:42:47;11.45;;;6.65;;
44214;SDS011;29884;47.450;19.124;2024-03-02T12:45:13;8.77;;;5.30;;
44214;SDS011;29884;47.450;19.124;2024-03-02T12:47:39;11.02;;;6.55;;
44214;SDS011;29884;47.450;19.124;2024-03-02T12:50:06;9.43;;;6.25;;
44214;SDS011;29884;47.450;19.124;2024-03-02T12:52:33;11.90;;;7.18;;
44214;SDS011;29884;47.450;19.124;2024-03-02T12:54:59;10.60;;;6.95;;
44214;SDS011;29884;47.450;19.124;2024-03-02T12:57:30;10.35;;;6.30;;
44214;SDS011;29884;47.450;19.124;2024-03-02T12:59:57;10.65;;;6.07;;
44214;SDS011;29884;47.450;19.124;2024-03-02T13:02:26;10.10;;;6.93;;
44214;SDS011;29884;47.450;19.124;2024-03-02T13:04:53;14.38;;;6.65;;
44214;SDS011;29884;47.450;19.124;2024-03-02T13:07:19;10.60;;;5.95;;
44214;SDS011;29884;47.450;19.124;2024-03-02T13:09:47;10.35;;;6.38;;
44214;SDS011;29884;47.450;19.124;2024-03-02T13:12:15;8.90;;;5.47;;
44214;SDS011;29884;47.450;19.124;2024-03-02T13:14:41;10.45;;;5.32;;
44214;SDS011;29884;47.450;19.124;2024-03-02T13:17:08;9.30;;;5.00;;
44214;SDS011;29884;47.450;19.124;2024-03-02T13:19:43;14.13;;;6.32;;
44214;SDS011;29884;47.450;19.124;2024-03-02T13:22:35;11.05;;;5.43;;
44214;SDS011;29884;47.450;19.124;2024-03-02T13:25:01;10.27;;;5.32;;
44214;SDS011;29884;47.450;19.124;2024-03-02T13:27:31;10.23;;;5.57;;
44214;SDS011;29884;47.450;19.124;2024-03-02T13:29:57;11.80;;;5.68;;
44214;SDS011;29884;47.450;19.124;2024-03-02T13:32:23;13.35;;;5.85;;
44214;SDS011;29884;47.450;19.124;2024-03-02T13:34:50;12.13;;;5.85;;
44214;SDS011;29884;47.450;19.124;2024-03-02T13:37:16;12.50;;;6.32;;
44214;SDS011;29884;47.450;19.124;2024-03-02T13:39:42;13.98;;;6.70;;
44214;SDS011;29884;47.450;19.124;2024-03-02T13:42:08;13.70;;;6.93;;
44214;SDS011;29884;47.450;19.124;2024-03-02T13:44:34;12.00;;;6.18;;
44214;SDS011;29884;47.450;19.124;2024-03-02T13:47:00;13.13;;;6.70;;
44214;SDS011;29884;47.450;19.124;2024-03-02T13:49:26;9.13;;;5.30;;
44214;SDS011;29884;47.450;19.124;2024-03-02T13:52:05;11.57;;;5.75;;
44214;SDS011;29884;47.450;19.124;2024-03-02T13:54:39;13.18;;;6.40;;
44214;SDS011;29884;47.450;19.124;2024-03-02T13:57:07;11.73;;;6.03;;
44214;SDS011;29884;47.450;19.124;2024-03-02T13:59:33;9.90;;;5.35;;
44214;SDS011;29884;47.450;19.124;2024-03-02T14:02:02;13.30;;;6.28;;
44214;SDS011;29884;47.450;19.124;2024-03-02T14:04:30;10.68;;;5.78;;
44214;SDS011;29884;47.450;19.124;2024-03-02T14:06:56;12.82;;;6.93;;
44214;SDS011;29884;47.450;19.124;2024-03-02T14:09:22;15.32;;;6.78;;
44214;SDS011;29884;47.450;19.124;2024-03-02T14:11:49;11.70;;;6.10;;
44214;SDS011;29884;47.450;19.124;2024-03-02T14:14:16;13.43;;;6.60;;
44214;SDS011;29884;47.450;19.124;2024-03-02T14:16:41;13.70;;;6.45;;